Time;durP1;ratioP1;P1;durP2;ratioP2;P2;SDS_P1;SDS_P2;PMS_P1;PMS_P2;Temp;Humidity;BMP_temperature;BMP_pressure;BME280_temperature;BME280_humidity;BME280_pressure;Samples;Min_cycle;Max_cycle;Signal;HPM_P1;HPM_P2
2021/01/10 00:01:39;;;;;;;37.30;14.77;;;;;;;0.65;87.43;101260.92;4834271;59;1134330;-85
2021/01/10 00:06:46;;;;;;;37.40;15.65;;;;;;;0.67;87.48;101268.25;4791284;59;1138560;-85
2021/01/10 00:11:52;;;;;;;34.73;13.80;;;;;;;0.65;87.47;101272.19;4865140;59;1136296;-85
2021/01/10 00:16:59;;;;;;;26.72;12.04;;;;;;;0.70;87.44;101272.94;4822054;60;1138474;-86
2021/01/10 00:22:04;;;;;;;29.53;12.70;;;;;;;0.73;87.38;101266.80;4742808;61;1138365;-85
2021/01/10 00:27:16;;;;;;;39.57;16.03;;;;;;;0.75;87.45;101273.28;4781045;62;21551;-85
2021/01/10 00:32:22;;;;;;;146.47;61.93;;;;;;;0.73;87.51;101270.71;4781137;62;21594;-85
2021/01/10 00:37:27;;;;;;;57.27;20.73;;;;;;;0.73;87.35;101277.22;4780603;62;21151;-85
2021/01/10 00:42:33;;;;;;;49.70;18.63;;;;;;;0.72;87.32;101287.22;4780531;62;21185;-85
2021/01/10 00:47:38;;;;;;;38.87;16.17;;;;;;;0.74;87.37;101291.95;4748037;60;1134406;-85
2021/01/10 00:52:45;;;;;;;50.20;20.43;;;;;;;0.72;87.39;101298.94;4745549;59;1138468;-86
2021/01/10 00:57:51;;;;;;;47.77;17.67;;;;;;;0.68;87.45;101301.20;4865871;60;1134223;-85
2021/01/10 01:02:57;;;;;;;42.33;17.00;;;;;;;0.74;87.49;101300.20;4853240;60;21170;-85
2021/01/10 01:08:03;;;;;;;52.03;20.37;;;;;;;0.74;87.39;101311.92;4851201;60;21487;-85
2021/01/10 01:13:10;;;;;;;43.33;17.37;;;;;;;0.69;87.47;101319.39;4761706;59;1140428;-85
2021/01/10 01:18:15;;;;;;;48.30;19.37;;;;;;;0.67;87.47;101315.96;4777392;59;1139385;-85
2021/01/10 01:23:21;;;;;;;37.93;15.87;;;;;;;0.71;87.75;101316.75;4814966;59;1138579;-85
2021/01/10 01:28:26;;;;;;;37.23;15.17;;;;;;;0.71;87.75;101316.75;4758683;59;1138436;-85
2021/01/10 01:33:32;;;;;;;39.97;16.97;;;;;;;0.72;87.66;101325.41;4799448;59;1138266;-86
2021/01/10 01:38:42;;;;;;;38.43;16.67;;;;;;;0.73;87.58;101317.57;4834617;59;1138405;-85
2021/01/10 01:43:48;;;;;;;25.40;12.13;;;;;;;0.74;87.52;101315.37;4758137;59;1138523;-85
2021/01/10 01:48:55;;;;;;;49.43;17.67;;;;;;;0.78;87.54;101312.23;4674558;60;1138625;-85
2021/01/10 01:54:01;;;;;;;32.87;13.47;;;;;;;0.74;87.58;101314.08;4820068;59;1138549;-85
2021/01/10 01:59:13;;;;;;;34.15;12.13;;;;;;;0.76;87.65;101313.59;4777808;59;1138495;-85
2021/01/10 02:04:41;;;;;;;47.23;18.10;;;;;;;0.75;87.45;101321.00;4907473;59;1138429;-85
2021/01/10 02:09:51;;;;;;;42.27;18.77;;;;;;;0.77;87.48;101323.53;4847603;58;1138553;-85
2021/01/10 02:15:03;;;;;;;36.35;15.10;;;;;;;0.80;87.47;101326.92;4741174;60;1136414;-85
2021/01/10 02:20:28;;;;;;;53.57;19.43;;;;;;;0.79;87.54;101329.12;4737928;60;1138754;-85
2021/01/10 02:25:39;;;;;;;46.03;19.37;;;;;;;0.78;87.46;101331.31;4635303;61;1138265;-85
2021/01/10 02:30:46;;;;;;;44.77;17.73;;;;;;;0.81;87.51;101325.17;4544256;63;1138431;-85
2021/01/10 02:35:52;;;;;;;40.77;16.53;;;;;;;0.82;87.50;101322.98;4698211;60;1138347;-85
2021/01/10 02:41:19;;;;;;;46.40;19.60;;;;;;;0.80;87.61;101325.63;4859841;61;21523;-85
2021/01/10 02:46:28;;;;;;;44.37;19.80;;;;;;;0.79;87.46;101328.27;4697872;61;1134223;-85
2021/01/10 02:51:33;;;;;;;49.33;19.53;;;;;;;0.81;87.53;101335.14;4792989;59;1138234;-85
2021/01/10 02:56:44;;;;;;;44.33;18.80;;;;;;;0.86;87.61;101332.44;4818678;61;21164;-85
2021/01/10 03:01:51;;;;;;;44.83;18.47;;;;;;;0.88;87.72;101330.66;4757660;60;1134195;-85
2021/01/10 03:06:59;;;;;;;42.73;17.70;;;;;;;0.86;87.49;101333.74;4794663;59;1138415;-85
2021/01/10 03:12:26;;;;;;;43.60;17.70;;;;;;;0.81;87.42;101335.59;4887944;61;21475;-85
2021/01/10 03:17:38;;;;;;;39.90;16.73;;;;;;;0.80;87.43;101330.83;4869518;59;1134267;-85
2021/01/10 03:22:46;;;;;;;40.80;19.07;;;;;;;0.83;87.51;101337.27;4710049;61;1139447;-85
2021/01/10 03:27:51;;;;;;;46.00;17.93;;;;;;;0.84;87.62;101327.71;4813369;59;1138470;-85
2021/01/10 03:32:57;;;;;;;45.13;15.37;;;;;;;0.83;87.63;101329.91;4764831;61;1138471;-86
2021/01/10 03:38:07;;;;;;;45.23;17.67;;;;;;;0.84;87.46;101336.83;4850100;60;1138401;-85
2021/01/10 03:43:13;;;;;;;41.57;16.20;;;;;;;0.84;87.51;101338.13;4709002;61;1145496;-86
2021/01/10 03:48:19;;;;;;;54.80;19.70;;;;;;;0.85;87.53;101326.38;4694153;60;1138432;-86
2021/01/10 03:53:24;;;;;;;50.33;17.33;;;;;;;0.82;87.66;101333.40;4833664;61;21455;-86
2021/01/10 03:58:30;;;;;;;48.13;19.70;;;;;;;0.84;87.68;101328.57;4834285;61;21385;-85
2021/01/10 04:03:36;;;;;;;47.13;17.13;;;;;;;0.86;87.53;101329.39;4772867;61;21156;-86
2021/01/10 04:08:41;;;;;;;39.17;15.17;;;;;;;0.85;87.50;101325.08;4884175;61;21102;-86
2021/01/10 04:13:47;;;;;;;45.70;15.27;;;;;;;0.84;87.48;101325.11;4757805;61;21606;-86
2021/01/10 04:18:52;;;;;;;48.33;18.13;;;;;;;0.80;87.62;101329.97;4887054;61;21177;-85
2021/01/10 04:23:58;;;;;;;39.83;14.63;;;;;;;0.76;87.61;101330.97;4790973;60;1134598;-85
2021/01/10 04:29:03;;;;;;;37.43;15.73;;;;;;;0.79;87.61;101336.08;4779343;59;1138303;-87
2021/01/10 04:34:09;;;;;;;41.37;15.07;;;;;;;0.74;87.64;101333.60;4878749;60;21534;-86
2021/01/10 04:39:15;;;;;;;37.00;14.60;;;;;;;0.72;87.86;101330.62;4719197;60;1134227;-86
2021/01/10 04:44:27;;;;;;;43.23;15.97;;;;;;;0.70;87.82;101334.56;4748066;60;1138588;-87
2021/01/10 04:49:29;;;;;;;39.73;15.60;;;;;;;0.70;87.78;101347.13;4787437;60;1138454;-86
2021/01/10 04:54:40;;;;;;;42.83;16.13;;;;;;;0.71;87.86;101344.08;4855225;61;21153;-86
2021/01/10 04:59:47;;;;;;;40.83;16.07;;;;;;;0.71;88.04;101347.98;4858285;60;21186;-86
2021/01/10 05:04:55;;;;;;;41.33;16.82;;;;;;;0.77;88.24;101343.92;4841255;59;1134285;-86
2021/01/10 05:10:00;;;;;;;34.37;14.67;;;;;;;0.90;88.28;101344.05;4792918;59;1138637;-86
2021/01/10 05:15:07;;;;;;;44.17;18.93;;;;;;;0.97;87.95;101348.65;4822567;59;1232796;-86
2021/01/10 05:20:13;;;;;;;37.97;15.10;;;;;;;0.96;88.04;101355.61;4763115;59;1138676;-86
2021/01/10 05:25:20;;;;;;;40.70;17.77;;;;;;;0.96;88.07;101353.00;4799863;59;1138712;-86
2021/01/10 05:30:34;;;;;;;40.20;17.03;;;;;;;0.99;87.98;101353.38;4824113;59;1138920;-86
2021/01/10 05:35:57;;;;;;;40.13;16.37;;;;;;;1.03;87.83;101360.23;4731080;59;1138304;-86
2021/01/10 05:41:07;;;;;;;39.88;14.10;;;;;;;1.03;87.73;101366.30;4839560;61;1134253;-86
2021/01/10 05:46:18;;;;;;;37.93;15.78;;;;;;;0.98;87.83;101361.64;4735179;59;1138414;-86
2021/01/10 05:51:31;;;;;;;40.37;15.40;;;;;;;0.97;87.74;101358.63;4829003;59;1138642;-86
2021/01/10 05:56:37;;;;;;;28.60;12.83;;;;;;;0.99;87.63;101359.89;4801728;59;1138247;-86
2021/01/10 06:01:47;;;;;;;32.73;13.68;;;;;;;0.98;87.59;101356.88;4836804;59;1136528;-86
2021/01/10 06:06:52;;;;;;;39.07;16.83;;;;;;;0.95;87.67;101360.41;4855733;60;21443;-86
2021/01/10 06:11:58;;;;;;;32.27;13.93;;;;;;;0.91;87.58;101359.23;4843679;60;21185;-86
2021/01/10 06:17:04;;;;;;;33.10;14.27;;;;;;;0.93;87.52;101369.14;4747519;62;21372;-86
2021/01/10 06:22:16;;;;;;;34.95;15.75;;;;;;;0.95;87.57;101368.22;4657509;61;1134354;-86
2021/01/10 06:27:26;;;;;;;37.53;15.43;;;;;;;0.94;87.71;101378.22;4654748;61;1138527;-86
2021/01/10 06:32:33;;;;;;;32.27;13.87;;;;;;;0.94;87.79;101378.66;4650274;60;1138747;-86
2021/01/10 06:37:41;;;;;;;37.27;15.80;;;;;;;0.96;87.69;101382.95;4713046;61;1138423;-85
2021/01/10 06:42:48;;;;;;;34.80;14.20;;;;;;;0.99;87.61;101388.09;4772293;60;1138258;-86
2021/01/10 06:47:55;;;;;;;38.30;16.50;;;;;;;1.00;87.62;101395.46;4731947;60;1138815;-86
2021/01/10 06:53:13;;;;;;;34.27;16.20;;;;;;;0.98;87.69;101397.24;4771150;59;1138450;-86
2021/01/10 06:58:19;;;;;;;35.53;16.27;;;;;;;1.01;87.82;101395.42;4936857;60;21403;-86
2021/01/10 07:03:29;;;;;;;39.83;17.50;;;;;;;1.07;87.65;101392.27;4943459;60;21150;-86
2021/01/10 07:08:37;;;;;;;41.70;18.23;;;;;;;1.14;88.13;101397.28;4893670;58;21448;-86
2021/01/10 07:13:42;;;;;;;44.30;18.20;;;;;;;1.20;88.03;101402.35;4887252;60;21178;-86
2021/01/10 07:19:03;;;;;;;38.90;15.77;;;;;;;1.18;87.72;101403.28;4809179;61;21176;-86
2021/01/10 07:24:22;;;;;;;36.97;16.63;;;;;;;1.18;87.46;101398.92;4883944;60;21146;-86
2021/01/10 07:29:44;;;;;;;38.93;16.30;;;;;;;1.16;87.27;101400.70;4708616;60;1134211;-87
2021/01/10 07:34:54;;;;;;;37.10;16.10;;;;;;;1.15;87.73;101404.20;4898317;60;21472;-86
2021/01/10 07:40:06;;;;;;;48.97;19.50;;;;;;;1.12;87.56;101407.32;4841833;59;1134870;-86
2021/01/10 07:45:20;;;;;;;45.00;16.82;;;;;;;1.09;87.31;101417.36;4799765;59;1138564;-86
2021/01/10 07:50:26;;;;;;;37.55;16.10;;;;;;;1.11;87.31;101422.54;4873059;59;1136322;-86
2021/01/10 07:55:33;;;;;;;48.77;20.17;;;;;;;1.03;87.39;101421.00;4787760;59;1138278;-86
2021/01/10 08:00:51;;;;;;;59.63;19.20;;;;;;;1.00;87.40;101431.48;4810308;59;1138252;-86
2021/01/10 08:06:06;;;;;;;34.20;13.97;;;;;;;0.96;87.32;101442.86;4792655;59;1138311;-86
2021/01/10 08:11:15;;;;;;;35.10;13.80;;;;;;;0.92;87.36;101449.02;4791308;59;1138577;-86
2021/01/10 08:16:36;;;;;;;32.80;14.25;;;;;;;0.89;87.48;101457.37;4807574;59;1138413;-86
2021/01/10 08:21:42;;;;;;;38.30;16.30;;;;;;;0.86;87.52;101450.92;4805969;59;1138499;-86
2021/01/10 08:26:47;;;;;;;41.40;16.03;;;;;;;0.85;87.65;101465.69;4790404;59;1138303;-86
2021/01/10 08:31:53;;;;;;;42.40;17.07;;;;;;;0.83;87.78;101469.22;4880349;60;21197;-84
2021/01/10 08:36:59;;;;;;;43.80;22.23;;;;;;;0.86;87.87;101473.91;4715050;60;1134272;-84
2021/01/10 08:42:04;;;;;;;31.03;14.30;;;;;;;0.90;87.89;101463.84;4794304;59;1138448;-84
2021/01/10 08:47:10;;;;;;;73.47;25.57;;;;;;;0.93;87.78;101461.59;4853926;59;1138484;-84
2021/01/10 08:52:15;;;;;;;70.03;21.27;;;;;;;0.93;87.86;101468.11;4796146;59;1138553;-84
2021/01/10 08:57:22;;;;;;;40.87;16.27;;;;;;;0.96;87.88;101465.44;4829284;59;1138316;-83
2021/01/10 09:02:29;;;;;;;56.67;20.37;;;;;;;1.02;87.97;101468.77;4871155;60;1138980;-83
2021/01/10 09:07:43;;;;;;;55.47;26.87;;;;;;;1.02;87.97;101466.61;4816535;58;1138790;-85
2021/01/10 09:12:57;;;;;;;58.27;21.53;;;;;;;1.06;88.08;101468.27;4861361;58;1138813;-85
2021/01/10 09:18:19;;;;;;;57.03;20.33;;;;;;;1.14;88.01;101465.02;4913120;58;1138226;-85
2021/01/10 09:23:25;;;;;;;64.27;23.33;;;;;;;1.15;87.94;101460.66;4911536;58;1138410;-85
2021/01/10 09:28:34;;;;;;;39.70;13.43;;;;;;;1.16;87.82;101459.77;4926519;58;1138472;-85
2021/01/10 09:33:40;;;;;;;32.73;13.48;;;;;;;1.16;87.88;101468.89;4892304;58;1138579;-85
2021/01/10 09:38:57;;;;;;;41.40;14.53;;;;;;;1.21;88.02;101465.30;4950796;58;1136787;-86
2021/01/10 09:44:03;;;;;;;33.70;13.93;;;;;;;1.18;87.86;101465.36;4966581;58;1138460;-86
2021/01/10 09:49:17;;;;;;;16.47;6.77;;;;;;;1.16;87.90;101475.41;4928482;58;1138302;-86
2021/01/10 09:54:32;;;;;;;23.70;8.55;;;;;;;1.12;87.79;101489.38;4890261;58;1136471;-87
2021/01/10 09:59:47;;;;;;;22.67;8.10;;;;;;;1.05;87.99;101489.55;4886316;58;1136675;-86
2021/01/10 10:04:59;;;;;;;46.57;27.77;;;;;;;1.03;88.17;101487.86;4891435;58;1136690;-86
2021/01/10 10:10:07;;;;;;;373.13;216.23;;;;;;;1.03;88.24;101488.72;4867360;58;1138363;-86
2021/01/10 10:15:13;;;;;;;45.13;23.20;;;;;;;1.12;88.31;101488.08;4898733;60;21200;-86
2021/01/10 10:20:19;;;;;;;82.12;30.60;;;;;;;1.19;88.27;101481.85;4690785;59;1134321;-87
2021/01/10 10:25:25;;;;;;;345.23;101.57;;;;;;;1.23;88.32;101476.51;4838521;59;1138349;-86
2021/01/10 10:30:30;;;;;;;101.60;31.13;;;;;;;1.27;88.24;101469.48;4690845;59;1142972;-86
2021/01/10 10:35:36;;;;;;;324.93;89.80;;;;;;;1.34;88.28;101469.31;4707166;59;1140392;-86
2021/01/10 10:40:42;;;;;;;61.93;33.07;;;;;;;1.40;88.23;101463.08;4710942;59;1140407;-86
2021/01/10 10:45:47;;;;;;;51.65;26.45;;;;;;;1.45;88.18;101457.76;4709285;60;1138318;-86
2021/01/10 10:50:53;;;;;;;304.43;110.07;;;;;;;1.55;88.20;101447.49;4692071;60;1138498;-86
2021/01/10 10:55:58;;;;;;;265.83;86.60;;;;;;;1.75;87.97;101458.27;4840527;59;1142537;-85
2021/01/10 11:01:04;;;;;;;251.40;133.43;;;;;;;1.75;87.97;101458.27;4765486;60;1136293;-85
2021/01/10 11:06:11;;;;;;;81.16;32.02;;;;;;;1.76;88.00;101450.41;4855228;58;1142790;-87
2021/01/10 11:11:16;;;;;;;108.17;38.80;;;;;;;1.70;87.60;101452.31;4741729;59;1138526;-86
2021/01/10 11:16:32;;;;;;;88.27;38.23;;;;;;;1.76;87.68;101453.47;4725675;59;1140454;-85
2021/01/10 11:21:44;;;;;;;70.00;28.33;;;;;;;1.74;87.52;101452.20;4732034;61;1138889;-84
2021/01/10 11:26:54;;;;;;;42.73;19.83;;;;;;;1.73;87.37;101452.23;4767899;60;1138305;-84
2021/01/10 11:32:05;;;;;;;68.03;35.33;;;;;;;1.74;87.52;101448.73;4769886;60;1138260;-85
2021/01/10 11:37:12;;;;;;;17.03;8.97;;;;;;;1.73;87.48;101447.02;4738337;59;1139264;-85
2021/01/10 11:42:17;;;;;;;91.47;45.80;;;;;;;1.74;87.45;101448.29;4691177;60;1136501;-85
2021/01/10 11:47:26;;;;;;;19.20;10.37;;;;;;;1.77;87.36;101448.66;4738162;60;1138869;-86
2021/01/10 11:52:30;;;;;;;12.57;7.37;;;;;;;1.76;87.35;101445.20;4619806;60;1138330;-85
2021/01/10 11:57:35;;;;;;;14.57;9.53;;;;;;;1.76;87.29;101442.59;4875393;61;21261;-85
2021/01/10 12:02:42;;;;;;;25.37;12.67;;;;;;;1.78;87.27;101442.55;4764720;59;1132340;-85
2021/01/10 12:07:48;;;;;;;13.10;6.27;;;;;;;1.74;87.22;101443.08;4778287;59;1138376;-85
2021/01/10 12:12:54;;;;;;;14.93;8.87;;;;;;;1.75;87.20;101437.41;4856879;60;22193;-86
2021/01/10 12:18:01;;;;;;;13.23;7.43;;;;;;;1.66;87.13;101436.36;4862237;59;21499;-86
2021/01/10 12:23:08;;;;;;;12.80;7.05;;;;;;;1.64;87.28;101443.36;4755881;59;1132374;-85
2021/01/10 12:28:14;;;;;;;13.03;7.40;;;;;;;1.63;87.33;101437.30;4798142;59;1136217;-86
2021/01/10 12:33:20;;;;;;;11.07;4.90;;;;;;;1.65;87.41;101436.81;4810138;59;1136580;-86
2021/01/10 12:38:25;;;;;;;14.53;8.00;;;;;;;1.62;87.43;101436.03;4823368;59;1136176;-85
2021/01/10 12:43:32;;;;;;;5.47;4.27;;;;;;;1.57;87.43;101430.92;4901359;59;21478;-85
2021/01/10 12:48:37;;;;;;;12.93;6.87;;;;;;;1.59;87.60;101421.31;4817271;58;1130234;-85
2021/01/10 12:53:43;;;;;;;13.40;7.17;;;;;;;1.60;87.63;101424.78;4827436;59;1136732;-85
2021/01/10 12:58:48;;;;;;;62.67;35.93;;;;;;;1.62;87.57;101431.67;4814180;59;1136148;-87
2021/01/10 13:03:54;;;;;;;32.00;20.20;;;;;;;1.64;87.61;101427.27;4816564;59;1138321;-86
2021/01/10 13:09:00;;;;;;;42.30;27.70;;;;;;;1.65;87.57;101422.47;4904675;59;21556;-86
2021/01/10 13:14:06;;;;;;;19.43;11.67;;;;;;;1.65;87.56;101422.47;4918881;58;21229;-86
2021/01/10 13:19:12;;;;;;;15.10;9.60;;;;;;;1.69;87.60;101427.98;4890648;58;1134587;-85
2021/01/10 13:24:17;;;;;;;17.55;7.95;;;;;;;1.69;87.60;101427.98;4848897;58;1136454;-85
2021/01/10 13:29:26;;;;;;;10.00;5.95;;;;;;;1.69;87.55;101428.44;4901653;58;1136268;-85
2021/01/10 13:34:31;;;;;;;16.67;9.78;;;;;;;1.67;87.56;101429.80;4863558;58;1136187;-85
2021/01/10 13:39:38;;;;;;;17.53;11.17;;;;;;;1.66;87.53;101432.00;4865716;58;1136179;-85
2021/01/10 13:44:45;;;;;;;246.53;87.27;;;;;;;1.67;87.61;101433.72;4851785;58;1138388;-85
2021/01/10 13:49:51;;;;;;;325.40;94.03;;;;;;;1.67;87.65;101427.64;4853291;58;1140468;-85
2021/01/10 13:54:57;;;;;;;883.90;330.17;;;;;;;1.69;87.58;101436.26;4714321;59;1140596;-85
2021/01/10 14:00:10;;;;;;;44.97;20.57;;;;;;;1.70;87.59;101428.84;4778998;60;21186;-85
2021/01/10 14:05:14;;;;;;;41.47;18.10;;;;;;;1.69;87.51;101431.90;4776518;59;1134237;-86
2021/01/10 14:10:20;;;;;;;311.17;95.90;;;;;;;1.69;87.44;101429.73;4788844;59;1138482;-86
2021/01/10 14:15:25;;;;;;;52.90;24.57;;;;;;;1.70;87.49;101423.63;4681156;60;1140830;-86
2021/01/10 14:20:31;;;;;;;97.47;32.67;;;;;;;1.76;87.35;101415.66;4695966;61;1138378;-85
2021/01/10 14:25:37;;;;;;;77.30;34.40;;;;;;;1.76;87.52;101426.09;4661778;60;1138697;-86
2021/01/10 14:30:43;;;;;;;187.97;46.33;;;;;;;1.75;87.26;101428.28;4643692;61;1138700;-86
2021/01/10 14:35:48;;;;;;;43.47;18.83;;;;;;;1.79;87.25;101425.16;4706634;60;1140459;-85
2021/01/10 14:40:54;;;;;;;177.93;86.10;;;;;;;1.78;87.22;101421.69;4600683;62;1138793;-86
2021/01/10 14:45:59;;;;;;;155.47;35.90;;;;;;;1.77;87.14;101419.97;4766081;61;1138439;-86
2021/01/10 14:51:06;;;;;;;363.60;150.70;;;;;;;1.76;87.05;101428.25;4722810;59;1140851;-86
2021/01/10 14:56:16;;;;;;;501.70;270.90;;;;;;;1.74;86.99;101429.17;4866878;59;1138403;-86
2021/01/10 15:01:23;;;;;;;286.43;142.90;;;;;;;1.72;87.01;101425.75;4796656;59;1142804;-86
2021/01/10 15:06:30;;;;;;;316.95;148.22;;;;;;;1.69;86.96;101427.98;4811561;59;1142448;-86
2021/01/10 15:11:36;;;;;;;697.57;412.73;;;;;;;1.67;86.89;101427.20;4886446;61;21570;-86
2021/01/10 15:17:24;;;;;;;129.10;70.07;;;;;;;1.63;86.87;101430.77;4894596;60;21171;-86
2021/01/10 15:22:29;;;;;;;26.37;11.18;;;;;;;1.61;86.88;101438.22;4817705;59;1136397;-86
2021/01/10 15:27:44;;;;;;;98.03;31.93;;;;;;;1.55;86.74;101440.98;4833816;59;1138327;-85
2021/01/10 15:32:52;;;;;;;24.23;10.03;;;;;;;1.55;86.76;101448.35;4899246;60;21172;-87
2021/01/10 15:37:59;;;;;;;46.43;18.40;;;;;;;1.48;86.43;101447.26;4910255;59;21172;-86
2021/01/10 15:43:05;;;;;;;111.90;39.90;;;;;;;1.41;86.60;101447.84;4833909;59;1134266;-86
2021/01/10 15:48:11;;;;;;;590.03;237.97;;;;;;;1.43;86.73;101447.81;4814469;59;1140365;-86
2021/01/10 15:53:16;;;;;;;190.90;54.10;;;;;;;1.46;86.69;101443.38;4814594;59;1142584;-87
2021/01/10 15:58:22;;;;;;;214.67;52.93;;;;;;;1.40;85.86;101447.44;4815105;59;1141236;-86
2021/01/10 16:03:28;;;;;;;376.73;89.50;;;;;;;1.34;85.83;101451.52;4908196;60;21157;-86
2021/01/10 16:08:34;;;;;;;125.53;34.83;;;;;;;1.25;85.38;101453.88;4907794;60;21146;-87
2021/01/10 16:13:40;;;;;;;279.20;83.77;;;;;;;1.21;85.74;101460.53;4907772;60;21821;-87
2021/01/10 16:18:45;;;;;;;176.27;62.43;;;;;;;1.16;85.67;101455.86;4800919;58;1136460;-87
2021/01/10 16:23:51;;;;;;;39.80;18.87;;;;;;;1.14;85.59;101446.78;4793833;59;1140445;-87
2021/01/10 16:28:57;;;;;;;286.90;93.43;;;;;;;1.15;85.59;101442.42;4794356;59;1138456;-87
2021/01/10 16:34:04;;;;;;;79.95;35.30;;;;;;;1.14;85.74;101440.71;4829178;59;1140532;-87
2021/01/10 16:39:12;;;;;;;78.57;28.27;;;;;;;1.12;85.29;101439.89;4799734;59;1138461;-88
2021/01/10 16:44:19;;;;;;;138.13;48.60;;;;;;;1.04;84.65;101438.78;4810926;59;1138900;-88
2021/01/10 16:49:25;;;;;;;100.77;44.90;;;;;;;0.98;85.07;101438.47;4864646;59;1138487;-86
2021/01/10 16:54:31;;;;;;;122.03;44.77;;;;;;;0.98;85.26;101437.17;4866592;59;1140589;-87
2021/01/10 16:59:39;;;;;;;40.20;19.97;;;;;;;1.01;85.38;101437.10;4790815;59;1140501;-87
2021/01/10 17:04:45;;;;;;;27.97;14.57;;;;;;;1.03;85.22;101430.11;4812899;59;1138443;-88
2021/01/10 17:09:51;;;;;;;31.20;11.93;;;;;;;0.97;84.95;101437.20;4794663;59;1138411;-88
2021/01/10 17:15:23;;;;;;;34.17;12.50;;;;;;;0.91;84.23;101446.48;4825826;59;1138606;-88
2021/01/10 17:20:19;;;;;;;25.80;6.65;;;;;;;0.81;84.07;101439.30;4789108;59;1138433;-87
2021/01/10 17:25:25;;;;;;;23.75;9.60;;;;;;;0.71;83.60;101445.62;4830123;59;1136388;-87
2021/01/10 17:30:31;;;;;;;26.47;12.50;;;;;;;0.67;84.46;101445.27;4792871;59;1136476;-87
2021/01/10 17:35:38;;;;;;;19.70;12.03;;;;;;;0.65;84.14;101441.39;4847467;59;1138432;-86
2021/01/10 17:40:52;;;;;;;72.20;27.10;;;;;;;0.64;84.00;101444.88;4865190;59;1138570;-87
2021/01/10 17:45:53;;;;;;;42.87;16.40;;;;;;;0.66;84.18;101447.45;4789898;59;1138541;-86
2021/01/10 17:50:59;;;;;;;16.70;8.07;;;;;;;0.64;83.80;101450.53;4814949;58;1138361;-86
2021/01/10 17:56:05;;;;;;;10.57;5.90;;;;;;;0.63;82.95;101458.78;4885097;59;21239;-86
2021/01/10 18:01:11;;;;;;;17.10;9.60;;;;;;;0.61;83.58;101466.24;4811220;59;1132028;-86
2021/01/10 18:06:25;;;;;;;22.90;12.23;;;;;;;0.61;83.73;101462.34;4884684;60;21156;-86
2021/01/10 18:11:24;;;;;;;22.25;12.45;;;;;;;0.62;83.84;101466.18;4791226;59;1134569;-86
2021/01/10 18:22:42;;;;;;;15.53;9.03;;;;;;;0.62;83.04;101466.63;4899481;60;21176;-86
2021/01/10 18:27:49;;;;;;;8.80;5.10;;;;;;;0.60;83.04;101477.09;4822935;59;1132126;-86
2021/01/10 18:32:54;;;;;;;13.33;8.03;;;;;;;0.59;83.18;101481.89;4711071;60;1134622;-86
2021/01/10 18:38:00;;;;;;;9.57;6.23;;;;;;;0.56;83.37;101478.05;4830927;59;1136399;-86
2021/01/10 18:43:06;;;;;;;10.60;5.43;;;;;;;0.60;83.58;101473.64;4698807;61;1135003;-86
2021/01/10 18:48:11;;;;;;;14.67;6.93;;;;;;;0.60;82.99;101472.33;4765095;60;1134194;-86
2021/01/10 18:53:17;;;;;;;6.73;4.40;;;;;;;0.59;83.36;101457.61;4831766;59;1136211;-86
2021/01/10 18:58:23;;;;;;;8.03;4.50;;;;;;;0.56;82.56;101459.83;4887864;60;1134436;-87
2021/01/10 19:03:28;;;;;;;13.07;6.93;;;;;;;0.42;82.00;101441.48;4709536;60;1135647;-86
2021/01/10 19:08:34;;;;;;;8.07;4.90;;;;;;;0.44;82.00;101448.38;4781981;59;1136183;-85
2021/01/10 19:13:44;;;;;;;10.07;5.80;;;;;;;0.39;81.58;101449.35;4682909;61;1134484;-86
2021/01/10 19:18:51;;;;;;;11.53;6.50;;;;;;;0.37;82.17;101445.48;4649792;61;1136299;-86
2021/01/10 19:24:06;;;;;;;11.90;6.43;;;;;;;0.36;81.95;101456.77;4843224;60;1134381;-85
2021/01/10 19:29:22;;;;;;;14.60;7.63;;;;;;;0.28;81.90;101459.98;4871993;58;1136516;-86
2021/01/10 19:34:27;;;;;;;16.47;9.90;;;;;;;0.22;82.02;101445.80;4907394;58;1136299;-85
2021/01/10 19:39:36;;;;;;;12.87;8.03;;;;;;;0.22;82.54;101453.16;4988687;59;21187;-86
2021/01/10 19:44:41;;;;;;;13.83;7.87;;;;;;;0.20;82.59;101449.72;4909181;58;1132025;-86
2021/01/10 19:49:47;;;;;;;18.50;11.47;;;;;;;0.20;82.63;101448.42;4970831;58;1134321;-86
2021/01/10 19:54:52;;;;;;;17.07;7.70;;;;;;;0.22;82.68;101447.95;4900586;60;21200;-85
2021/01/10 20:00:02;;;;;;;16.70;10.10;;;;;;;0.20;82.33;101448.86;4988460;59;21141;-86
2021/01/10 20:05:07;;;;;;;16.13;9.17;;;;;;;0.20;82.61;101451.02;4875033;61;21184;-85
2021/01/10 20:10:13;;;;;;;14.03;7.23;;;;;;;0.19;82.71;101441.95;4879984;60;21499;-85
2021/01/10 20:15:43;;;;;;;14.83;7.53;;;;;;;0.14;82.10;101448.56;4983025;59;21121;-86
2021/01/10 20:21:05;;;;;;;12.00;6.93;;;;;;;0.10;81.60;101435.64;4959096;59;21150;-86
2021/01/10 20:26:41;;;;;;;7.90;5.33;;;;;;;0.07;81.49;101431.80;4918437;59;1132385;-86
2021/01/10 20:32:06;;;;;;;10.27;6.70;;;;;;;0.04;81.06;101428.80;4785196;58;1134862;-86
2021/01/10 20:37:58;;;;;;;8.77;5.50;;;;;;;-0.01;81.19;101433.27;4770926;59;1136354;-86
2021/01/10 20:49:28;;;;;;;5.87;3.80;;;;;;;-0.08;79.58;101414.75;4853537;59;1136357;-87
2021/01/10 20:54:44;;;;;;;;;;;;;;;-0.09;78.84;101420.39;4825485;59;1136344;-86
2021/01/10 20:59:45;;;;;;;7.57;4.40;;;;;;;-0.10;79.45;101414.78;4812331;59;973512;-87
2021/01/10 21:04:51;;;;;;;4.73;2.80;;;;;;;-0.12;78.98;101413.09;4898126;60;21167;-86
2021/01/10 21:09:56;;;;;;;12.07;6.42;;;;;;;-0.13;79.20;101409.63;4809093;59;1132183;-86
2021/01/10 21:15:02;;;;;;;8.60;5.13;;;;;;;-0.14;79.73;101414.41;4633142;61;1138331;-86
2021/01/10 21:20:09;;;;;;;8.10;5.37;;;;;;;-0.17;79.55;101404.55;4736109;61;1136401;-86
2021/01/10 21:25:14;;;;;;;7.83;5.50;;;;;;;-0.22;79.51;101402.02;4709215;61;1136399;-86
2021/01/10 21:30:21;;;;;;;18.87;8.70;;;;;;;-0.26;79.23;101388.66;4642017;62;21165;-85
2021/01/10 21:35:26;;;;;;;26.50;11.48;;;;;;;-0.28;79.52;101381.33;4738760;61;1134401;-86
2021/01/10 21:40:32;;;;;;;14.70;8.38;;;;;;;-0.34;79.51;101378.88;4756683;60;1140613;-87
2021/01/10 21:45:37;;;;;;;14.03;7.35;;;;;;;-0.37;79.60;101381.08;4801920;60;1138392;-85
2021/01/10 21:50:43;;;;;;;8.73;5.07;;;;;;;-0.42;79.63;101391.98;4770547;60;1138473;-85
2021/01/10 21:55:48;;;;;;;14.63;7.00;;;;;;;-0.43;79.93;101395.47;4602139;62;1136245;-86
2021/01/10 22:00:54;;;;;;;15.93;8.87;;;;;;;-0.47;80.28;101396.88;4700758;63;21557;-86
2021/01/10 22:06:00;;;;;;;13.10;8.57;;;;;;;-0.48;80.46;101396.02;4704260;63;21259;-86
2021/01/10 22:11:06;;;;;;;13.83;8.67;;;;;;;-0.51;80.67;101384.38;4540516;63;1134307;-86
2021/01/10 22:16:22;;;;;;;22.60;10.03;;;;;;;-0.49;80.76;101384.36;4579691;62;1138317;-85
2021/01/10 22:21:28;;;;;;;7.65;4.17;;;;;;;-0.52;80.88;101385.27;4659602;60;1140408;-85
2021/01/10 22:27:29;;;;;;;15.03;8.63;;;;;;;-0.54;80.98;101379.23;4657850;60;1136425;-86
2021/01/10 22:32:34;;;;;;;14.38;6.97;;;;;;;-0.53;81.20;101372.30;4770487;58;1138503;-86
2021/01/10 22:37:40;;;;;;;21.13;11.13;;;;;;;-0.55;81.30;101363.67;4714446;59;1138383;-86
2021/01/10 22:42:45;;;;;;;9.40;5.73;;;;;;;-0.55;81.51;101359.77;4640022;61;1140559;-86
2021/01/10 22:47:51;;;;;;;22.23;9.80;;;;;;;-0.54;81.47;101348.05;4801980;59;21207;-86
2021/01/10 22:52:57;;;;;;;20.93;10.17;;;;;;;-0.53;81.57;101350.21;4733800;60;1134255;-87
2021/01/10 22:58:03;;;;;;;19.07;11.43;;;;;;;-0.53;81.63;101343.72;4693595;61;1138413;-87
2021/01/10 23:03:08;;;;;;;15.27;8.37;;;;;;;-0.50;81.56;101343.66;4736987;59;1140478;-86
2021/01/10 23:08:14;;;;;;;11.57;6.23;;;;;;;-0.53;81.42;101341.98;4725639;59;1138321;-87
2021/01/10 23:13:19;;;;;;;15.37;8.87;;;;;;;-0.55;81.23;101351.98;4770746;59;1138293;-86
2021/01/10 23:18:25;;;;;;;11.70;6.57;;;;;;;-0.58;81.11;101350.28;4841927;60;21111;-87
2021/01/10 23:23:31;;;;;;;12.03;6.93;;;;;;;-0.67;80.81;101347.88;4694662;60;1134263;-87
2021/01/10 23:28:36;;;;;;;14.80;8.17;;;;;;;-0.67;80.73;101342.67;4834348;59;1138378;-87